createdAt,value
2024-05-09T00:02:17.511Z,101237.84
2024-05-09T00:07:19.512Z,101228.53
2024-05-09T00:12:21.579Z,101224.66
2024-05-09T00:17:23.701Z,101233.16
2024-05-09T00:22:25.671Z,101232.44
2024-05-09T00:27:27.513Z,101233.56
2024-05-09T00:32:29.499Z,101229.25
2024-05-09T00:37:31.478Z,101239.44
2024-05-09T00:42:37.910Z,101238.91
2024-05-09T00:47:42.921Z,101240.56
2024-05-09T00:52:46.731Z,101245.41
2024-05-09T00:57:48.674Z,101244.63
2024-05-09T01:02:50.627Z,101240.78
2024-05-09T01:07:52.675Z,101245.28
2024-05-09T01:12:54.519Z,101241.44
2024-05-09T01:17:57.800Z,101232.50
2024-05-09T01:23:01.300Z,101231.53
2024-05-09T01:28:03.243Z,101235.94
2024-05-09T01:33:08.060Z,101239.59
2024-05-09T01:38:13.922Z,101228.38
2024-05-09T01:43:16.295Z,101228.03
2024-05-09T01:48:18.238Z,101239.84
2024-05-09T01:53:20.159Z,101234.94
2024-05-09T01:58:22.062Z,101241.78
2024-05-09T02:03:24.199Z,101234.16
2024-05-09T02:08:26.191Z,101226.06
2024-05-09T02:13:28.059Z,101229.34
2024-05-09T02:18:30.028Z,101224.63
2024-05-09T02:23:32.007Z,101221.75
2024-05-09T02:28:33.891Z,101232.84
2024-05-09T02:33:36.006Z,101231.31
2024-05-09T02:38:38.980Z,101217.03
2024-05-09T02:43:40.923Z,101229.31
2024-05-09T02:48:43.467Z,101232.22
2024-05-09T02:53:45.472Z,101231.88
2024-05-09T02:58:47.423Z,101227.59
2024-05-09T03:03:51.012Z,101236.25
2024-05-09T03:08:52.960Z,101234.25
2024-05-09T03:13:55.332Z,101230.66
2024-05-09T03:18:57.393Z,101232.38
2024-05-09T03:23:59.324Z,101242.41
2024-05-09T03:29:01.308Z,101248.97
2024-05-09T03:34:03.384Z,101248.00
2024-05-09T03:39:05.392Z,101251.06
2024-05-09T03:44:08.062Z,101243.94
2024-05-09T03:49:10.159Z,101244.16
2024-05-09T03:54:12.717Z,101239.41
2024-05-09T03:59:16.705Z,101239.13
2024-05-09T04:04:18.630Z,101235.25
2024-05-09T04:09:20.466Z,101249.78
2024-05-09T04:14:22.364Z,101250.50
2024-05-09T04:19:24.603Z,101256.09
2024-05-09T04:24:26.537Z,101260.97
2024-05-09T04:29:28.638Z,101260.19
2024-05-09T04:34:30.635Z,101253.66
2024-05-09T04:39:34.511Z,101254.09
2024-05-09T04:44:36.529Z,101256.19
2024-05-09T04:49:38.385Z,101265.72
2024-05-09T04:54:40.226Z,101262.28
2024-05-09T04:59:42.035Z,101266.44
2024-05-09T05:04:45.168Z,101274.72
2024-05-09T05:09:47.093Z,101267.09
2024-05-09T05:14:49.099Z,101277.94
2024-05-09T05:19:51.138Z,101277.50
2024-05-09T05:24:53.051Z,101281.34
2024-05-09T05:29:54.929Z,101286.56
2024-05-09T05:34:56.844Z,101280.94
2024-05-09T05:39:58.680Z,101284.34
2024-05-09T05:45:00.698Z,101285.97
2024-05-09T05:50:03.791Z,101283.75
2024-05-09T05:55:07.272Z,101288.03
2024-05-09T06:00:15.232Z,101277.78
2024-05-09T06:05:24.785Z,101274.66
2024-05-09T06:10:35.246Z,101274.22
2024-05-09T06:15:41.344Z,101276.56
2024-05-09T06:20:44.246Z,101260.28
2024-05-09T06:25:46.530Z,101259.78
2024-05-09T06:30:48.447Z,101253.41
2024-05-09T06:35:50.486Z,101246.78
2024-05-09T06:40:52.495Z,101239.59
2024-05-09T06:45:54.437Z,101233.19
2024-05-09T06:50:57.265Z,101238.34
2024-05-09T06:55:59.291Z,101229.91
2024-05-09T07:01:01.384Z,101244.50
2024-05-09T07:06:03.518Z,101225.59
2024-05-09T07:11:05.763Z,101223.31
2024-05-09T07:16:07.783Z,101210.72
2024-05-09T07:21:09.817Z,101208.91
2024-05-09T07:26:11.970Z,101205.72
2024-05-09T07:31:14.276Z,101196.88
2024-05-09T07:36:16.311Z,101180.75
2024-05-09T07:41:18.277Z,101179.00
2024-05-09T07:56:30.183Z,101120.84
2024-05-09T08:01:32.516Z,101104.50
2024-05-09T08:06:34.614Z,101097.06
2024-05-09T08:11:36.573Z,101103.03
2024-05-09T08:16:38.538Z,101114.34
2024-05-09T08:21:40.464Z,101096.50
2024-05-09T08:26:42.372Z,101086.53
2024-05-09T08:31:44.557Z,101105.78
2024-05-09T08:36:46.541Z,101095.25
2024-05-09T08:41:53.204Z,101099.22
2024-05-09T08:46:56.079Z,101082.03
2024-05-09T08:51:58.080Z,101096.44
2024-05-09T08:57:01.224Z,101105.06
2024-05-09T09:02:06.110Z,101088.34
2024-05-09T09:07:08.111Z,101051.44
2024-05-09T09:12:12.652Z,101068.81
2024-05-09T09:17:16.138Z,101027.25
2024-05-09T09:22:19.904Z,101027.78
2024-05-09T09:27:22.602Z,100988.75
2024-05-09T09:32:29.152Z,101035.59
2024-05-09T09:37:31.455Z,101009.44
2024-05-09T09:42:36.633Z,101024.47
2024-05-09T09:47:40.667Z,101017.06
2024-05-09T09:52:43.057Z,101021.81
2024-05-09T09:57:45.205Z,101010.66
2024-05-09T10:02:47.139Z,100994.31
2024-05-09T10:07:49.419Z,100994.91
2024-05-09T10:13:09.515Z,100979.53
2024-05-09T10:18:11.741Z,101004.91
2024-05-09T10:23:31.224Z,100976.28
2024-05-09T10:28:35.337Z,100978.22
2024-05-09T10:33:53.868Z,100982.19
2024-05-09T10:38:56.196Z,100971.06
2024-05-09T10:43:58.091Z,100971.94
2024-05-09T10:49:03.318Z,100960.31
2024-05-09T10:54:07.877Z,100981.75
2024-05-09T10:59:09.799Z,100974.22
2024-05-09T11:04:12.211Z,100976.47
2024-05-09T11:09:14.858Z,100987.69
2024-05-09T11:14:17.389Z,100976.28
2024-05-09T11:19:19.907Z,100995.22
2024-05-09T11:24:23.187Z,100975.91
2024-05-09T11:29:43.313Z,100978.72
2024-05-09T11:34:45.283Z,100974.16
2024-05-09T11:39:47.279Z,100972.84
2024-05-09T11:44:49.169Z,101001.78
2024-05-09T11:49:51.113Z,100977.44
2024-05-09T11:54:53.073Z,100925.84
2024-05-09T11:59:55.215Z,100915.28
2024-05-09T12:04:57.250Z,100928.66
2024-05-09T12:09:59.277Z,100900.94
2024-05-09T12:15:01.235Z,100913.44
2024-05-09T12:20:04.314Z,100913.19
2024-05-09T12:25:09.060Z,100921.31
2024-05-09T12:30:14.236Z,100908.81
2024-05-09T12:35:18.933Z,100889.16
2024-05-09T12:40:26.875Z,100897.13
2024-05-09T12:45:36.985Z,100892.97
2024-05-09T12:50:39.578Z,100905.28
2024-05-09T12:55:48.541Z,100880.88
2024-05-09T13:00:58.333Z,100880.03
2024-05-09T13:06:00.378Z,100881.69
2024-05-09T13:11:02.348Z,100882.53
2024-05-09T13:16:04.708Z,100878.41
2024-05-09T13:21:06.634Z,100875.88
2024-05-09T13:26:08.535Z,100879.47
2024-05-09T13:31:10.473Z,100890.63
2024-05-09T13:36:12.365Z,100866.72
2024-05-09T13:41:14.291Z,100849.50
2024-05-09T13:46:16.209Z,100852.25
2024-05-09T13:51:18.188Z,100835.03
2024-05-09T13:56:20.052Z,100847.25
2024-05-09T14:01:21.962Z,100843.38
2024-05-09T14:06:23.983Z,100818.34
2024-05-09T14:11:25.945Z,100837.25
2024-05-09T14:16:29.377Z,100813.34
2024-05-09T14:21:31.344Z,100812.22
2024-05-09T14:26:33.358Z,100825.31
2024-05-09T14:31:37.894Z,100811.97
2024-05-09T14:36:41.328Z,100801.69
2024-05-09T14:41:43.261Z,100795.00
2024-05-09T14:46:45.251Z,100790.53
2024-05-09T14:51:48.171Z,100788.31
2024-05-09T14:56:51.031Z,100796.41
2024-05-09T15:01:53.035Z,100774.72
2024-05-09T15:06:56.674Z,100786.69
2024-05-09T15:12:01.527Z,100788.06
2024-05-09T15:17:03.574Z,100777.22
2024-05-09T15:22:05.602Z,100759.44
2024-05-09T15:27:07.505Z,100768.88
2024-05-09T15:32:09.563Z,100770.84
2024-05-09T15:37:12.093Z,100758.88
2024-05-09T15:42:14.020Z,100763.88
2024-05-09T15:47:15.895Z,100753.88
2024-05-09T15:52:18.109Z,100766.94
2024-05-09T15:57:20.154Z,100752.50
2024-05-09T16:02:22.254Z,100739.19
2024-05-09T16:07:24.843Z,100741.38
2024-05-09T16:12:26.695Z,100741.66
2024-05-09T16:17:28.820Z,100748.88
2024-05-09T16:22:31.309Z,100752.22
2024-05-09T16:27:33.383Z,100742.78
2024-05-09T16:32:35.350Z,100739.75
2024-05-09T16:37:37.479Z,100740.28
2024-05-09T16:42:39.535Z,100740.56
2024-05-09T16:47:41.624Z,100731.38
2024-05-09T16:52:43.761Z,100746.66
2024-05-09T16:57:45.664Z,100739.44
2024-05-09T17:02:47.577Z,100740.22
2024-05-09T17:07:50.791Z,100740.25
2024-05-09T17:12:52.993Z,100748.25
2024-05-09T17:17:55.601Z,100739.38
2024-05-09T17:22:57.797Z,100745.50
2024-05-09T17:28:06.179Z,100747.69
2024-05-09T17:33:10.681Z,100744.91
2024-05-09T17:38:13.628Z,100744.31
2024-05-09T17:43:15.666Z,100743.69
2024-05-09T17:48:17.883Z,100746.47
2024-05-09T17:53:31.789Z,100759.69
2024-05-09T17:58:34.096Z,100761.81
2024-05-09T18:03:36.420Z,100764.50
2024-05-09T18:08:38.497Z,100766.63
2024-05-09T18:13:40.379Z,100769.81
2024-05-09T18:18:42.383Z,100770.47
2024-05-09T18:23:44.339Z,100785.47
2024-05-09T18:28:47.596Z,100788.13
2024-05-09T18:33:49.773Z,100792.47
2024-05-09T18:38:51.788Z,100799.34
2024-05-09T18:43:54.309Z,100813.41
2024-05-09T18:48:56.332Z,100804.47
2024-05-09T18:53:58.237Z,100810.63
2024-05-09T18:59:00.168Z,100820.91
2024-05-09T19:04:02.301Z,100833.41
2024-05-09T19:09:05.202Z,100843.91
2024-05-09T19:14:07.689Z,100849.22
2024-05-09T19:19:10.146Z,100846.38
2024-05-09T19:24:12.111Z,100857.34
2024-05-09T19:29:13.959Z,100862.63
2024-05-09T19:34:16.732Z,100860.47
2024-05-09T19:39:18.637Z,100869.81
2024-05-09T19:44:20.545Z,100877.94
2024-05-09T19:49:22.647Z,100869.03
2024-05-09T19:54:24.672Z,100876.38
2024-05-09T19:59:26.534Z,100872.59
2024-05-09T20:04:28.662Z,100881.94
2024-05-09T20:09:30.660Z,100887.50
2024-05-09T20:14:32.496Z,100890.59
2024-05-09T20:19:34.616Z,100893.50
2024-05-09T20:24:36.712Z,100902.75
2024-05-09T20:29:38.653Z,100911.06
2024-05-09T20:34:40.677Z,100907.31
2024-05-09T20:39:42.527Z,100898.34
2024-05-09T20:44:44.382Z,100906.00
2024-05-09T20:49:46.437Z,100900.19
2024-05-09T20:54:48.338Z,100894.97
2024-05-09T20:59:50.181Z,100896.31
2024-05-09T21:04:52.162Z,100897.06
2024-05-09T21:09:54.109Z,100907.69
2024-05-09T21:14:55.977Z,100902.00
2024-05-09T21:19:57.874Z,100897.19
2024-05-09T21:25:00.026Z,100899.94
2024-05-09T21:30:01.992Z,100897.06
2024-05-09T21:35:04.283Z,100896.88
2024-05-09T21:40:11.429Z,100889.97
2024-05-09T21:45:15.707Z,100885.81
2024-05-09T21:50:22.915Z,100876.00
2024-05-09T21:55:30.279Z,100882.94
2024-05-09T22:00:36.742Z,100876.22
2024-05-09T22:05:43.725Z,100877.09
2024-05-09T22:10:45.946Z,100874.81
2024-05-09T22:15:49.207Z,100878.41
2024-05-09T22:20:51.060Z,100874.00
2024-05-09T22:25:52.910Z,100880.53
2024-05-09T22:30:55.578Z,100874.22
2024-05-09T22:35:57.468Z,100875.91
2024-05-09T22:40:59.359Z,100879.72
2024-05-09T22:46:03.102Z,100885.81
2024-05-09T22:51:05.205Z,100879.06
2024-05-09T22:56:07.601Z,100873.19
2024-05-09T23:01:14.985Z,100867.72
2024-05-09T23:06:16.952Z,100868.34
2024-05-09T23:11:18.870Z,100865.63
2024-05-09T23:16:20.965Z,100860.75
2024-05-09T23:21:22.884Z,100867.28
2024-05-09T23:26:24.731Z,100868.53
2024-05-09T23:31:26.673Z,100873.19
2024-05-09T23:36:29.363Z,100877.59
2024-05-09T23:41:31.208Z,100867.72
2024-05-09T23:46:33.129Z,100873.41
2024-05-09T23:51:35.214Z,100872.34
2024-05-09T23:56:37.169Z,100857.19
